Magdalena, New Mexico
Current Conditions -  °F | °C
As of 10:35 PM on Thursday 27 Nov 2014 (Local Time) from KONM Reporting Station
Clear Clear  
Wind Chill: 40°   Ceiling: Unl
Heat Index: 40°   Visibility: 10mi
Dew Point: 19°   Wind: 3mph
Humidity: 42%   Direction: 200°SSW
Pressure: 30.33"   Gusts: NA
Location:  34.12°N, 107.24°W
Report Text: KONM 280535Z AUTO 20003KT 10SM CLR 04/M07 A3033 RMK AO2 T00441075
Loading
Personal Weather Stations






























Interactive Weather Map New forecast layout! Learn more

10-Day Weather Forecast

Advertisements
Track Severe Weather on mobile